sensor_id;sensor_type;location;lat;lon;timestamp;pressure;altitude;pressure_sealevel;temperature;humidity
49393;BME280;35268;42.642;23.308;2022-09-27T00:00:25;93037.78;;;15.20;82.97
49393;BME280;35268;42.642;23.308;2022-09-27T00:02:51;93054.00;;;15.27;82.99
49393;BME280;35268;42.642;23.308;2022-09-27T00:05:17;93071.69;;;15.32;82.90
49393;BME280;35268;42.642;23.308;2022-09-27T00:07:43;93053.25;;;15.30;82.80
49393;BME280;35268;42.642;23.308;2022-09-27T00:10:09;93059.44;;;15.34;82.48
49393;BME280;35268;42.642;23.308;2022-09-27T00:12:35;93068.25;;;15.31;82.19
49393;BME280;35268;42.642;23.308;2022-09-27T00:15:03;93053.44;;;14.91;83.93
49393;BME280;35268;42.642;23.308;2022-09-27T00:17:30;93065.69;;;14.89;84.28
49393;BME280;35268;42.642;23.308;2022-09-27T00:19:58;93067.22;;;14.90;84.37
49393;BME280;35268;42.642;23.308;2022-09-27T00:22:24;93054.63;;;14.94;84.35
49393;BME280;35268;42.642;23.308;2022-09-27T00:24:50;93068.09;;;14.97;84.26
49393;BME280;35268;42.642;23.308;2022-09-27T00:27:16;93060.72;;;14.91;84.14
49393;BME280;35268;42.642;23.308;2022-09-27T00:29:43;93076.00;;;14.63;85.73
49393;BME280;35268;42.642;23.308;2022-09-27T00:32:11;93079.25;;;14.53;86.52
49393;BME280;35268;42.642;23.308;2022-09-27T00:34:40;93080.38;;;14.52;86.79
49393;BME280;35268;42.642;23.308;2022-09-27T00:37:07;93071.56;;;14.52;87.17
49393;BME280;35268;42.642;23.308;2022-09-27T00:39:32;93064.78;;;14.58;87.11
49393;BME280;35268;42.642;23.308;2022-09-27T00:41:58;93067.53;;;14.61;87.01
49393;BME280;35268;42.642;23.308;2022-09-27T00:52:20;93058.47;;;14.70;86.41
49393;BME280;35268;42.642;23.308;2022-09-27T00:54:53;93052.38;;;14.73;86.43
49393;BME280;35268;42.642;23.308;2022-09-27T00:57:21;93057.88;;;14.80;86.13
49393;BME280;35268;42.642;23.308;2022-09-27T01:00:08;93051.91;;;14.90;86.09
49393;BME280;35268;42.642;23.308;2022-09-27T01:02:36;93032.72;;;14.88;85.78
49393;BME280;35268;42.642;23.308;2022-09-27T01:05:04;93038.59;;;14.97;85.19
49393;BME280;35268;42.642;23.308;2022-09-27T01:07:33;93029.09;;;15.03;84.73
49393;BME280;35268;42.642;23.308;2022-09-27T01:09:59;93046.03;;;15.08;84.35
49393;BME280;35268;42.642;23.308;2022-09-27T01:18:32;93019.81;;;14.97;84.08
49393;BME280;35268;42.642;23.308;2022-09-27T01:24:13;93007.63;;;15.03;84.03
49393;BME280;35268;42.642;23.308;2022-09-27T01:32:05;92999.03;;;14.91;84.77
49393;BME280;35268;42.642;23.308;2022-09-27T01:35:01;92998.91;;;14.83;85.23
49393;BME280;35268;42.642;23.308;2022-09-27T01:37:56;93029.44;;;14.75;85.21
49393;BME280;35268;42.642;23.308;2022-09-27T01:40:45;93018.69;;;14.52;85.95
49393;BME280;35268;42.642;23.308;2022-09-27T01:43:28;93029.19;;;14.61;86.14
49393;BME280;35268;42.642;23.308;2022-09-27T01:46:03;93047.19;;;14.37;86.80
49393;BME280;35268;42.642;23.308;2022-09-27T01:48:41;93031.31;;;14.29;87.26
49393;BME280;35268;42.642;23.308;2022-09-27T01:51:19;93034.41;;;14.31;87.46
49393;BME280;35268;42.642;23.308;2022-09-27T01:53:53;93036.25;;;14.27;87.38
49393;BME280;35268;42.642;23.308;2022-09-27T01:56:23;93041.91;;;14.21;87.93
49393;BME280;35268;42.642;23.308;2022-09-27T02:01:21;92997.13;;;14.22;88.82
49393;BME280;35268;42.642;23.308;2022-09-27T02:03:50;93002.22;;;14.31;88.74
49393;BME280;35268;42.642;23.308;2022-09-27T02:06:26;92999.50;;;14.27;88.25
49393;BME280;35268;42.642;23.308;2022-09-27T02:11:26;92991.00;;;14.21;88.46
49393;BME280;35268;42.642;23.308;2022-09-27T02:14:03;92980.03;;;14.30;88.76
49393;BME280;35268;42.642;23.308;2022-09-27T02:16:49;92992.06;;;14.40;88.37
49393;BME280;35268;42.642;23.308;2022-09-27T02:19:43;93001.78;;;14.48;87.42
49393;BME280;35268;42.642;23.308;2022-09-27T02:24:58;92973.84;;;14.49;88.01
49393;BME280;35268;42.642;23.308;2022-09-27T02:27:56;92947.16;;;14.56;87.67
49393;BME280;35268;42.642;23.308;2022-09-27T02:30:23;92947.91;;;14.57;87.51
49393;BME280;35268;42.642;23.308;2022-09-27T02:32:49;92936.91;;;14.62;87.39
49393;BME280;35268;42.642;23.308;2022-09-27T02:35:25;92939.66;;;14.66;86.81
49393;BME280;35268;42.642;23.308;2022-09-27T02:37:54;92925.81;;;14.63;86.53
49393;BME280;35268;42.642;23.308;2022-09-27T02:40:19;92928.13;;;14.65;86.84
49393;BME280;35268;42.642;23.308;2022-09-27T02:42:45;92935.53;;;14.72;86.08
49393;BME280;35268;42.642;23.308;2022-09-27T02:45:12;92948.88;;;14.68;85.80
49393;BME280;35268;42.642;23.308;2022-09-27T02:53:58;92931.72;;;14.50;86.70
49393;BME280;35268;42.642;23.308;2022-09-27T03:00:00;92965.25;;;14.40;87.21
49393;BME280;35268;42.642;23.308;2022-09-27T03:02:50;92963.22;;;14.10;88.99
49393;BME280;35268;42.642;23.308;2022-09-27T03:05:24;92932.81;;;13.99;89.59
49393;BME280;35268;42.642;23.308;2022-09-27T03:07:50;92933.16;;;13.97;89.60
49393;BME280;35268;42.642;23.308;2022-09-27T03:10:22;92917.81;;;13.94;90.04
49393;BME280;35268;42.642;23.308;2022-09-27T03:12:48;92904.00;;;13.92;90.46
49393;BME280;35268;42.642;23.308;2022-09-27T03:15:15;92904.00;;;13.92;90.43
49393;BME280;35268;42.642;23.308;2022-09-27T03:17:40;92895.53;;;13.90;90.29
49393;BME280;35268;42.642;23.308;2022-09-27T03:20:06;92906.28;;;13.94;90.58
49393;BME280;35268;42.642;23.308;2022-09-27T03:22:33;92899.94;;;14.02;90.17
49393;BME280;35268;42.642;23.308;2022-09-27T03:24:58;92896.47;;;14.01;90.12
49393;BME280;35268;42.642;23.308;2022-09-27T03:27:24;92892.72;;;14.06;89.68
49393;BME280;35268;42.642;23.308;2022-09-27T03:29:49;92896.19;;;14.07;89.04
49393;BME280;35268;42.642;23.308;2022-09-27T03:32:15;92885.81;;;14.05;89.69
49393;BME280;35268;42.642;23.308;2022-09-27T03:34:40;92887.38;;;14.06;89.11
49393;BME280;35268;42.642;23.308;2022-09-27T03:37:06;92902.56;;;13.98;89.40
49393;BME280;35268;42.642;23.308;2022-09-27T03:39:33;92891.66;;;13.88;89.86
49393;BME280;35268;42.642;23.308;2022-09-27T03:41:58;92887.44;;;13.87;90.27
49393;BME280;35268;42.642;23.308;2022-09-27T03:44:24;92874.03;;;13.87;90.52
49393;BME280;35268;42.642;23.308;2022-09-27T03:46:49;92876.25;;;13.81;91.12
49393;BME280;35268;42.642;23.308;2022-09-27T03:49:15;92880.00;;;13.76;91.86
49393;BME280;35268;42.642;23.308;2022-09-27T03:51:41;92880.84;;;13.80;91.83
49393;BME280;35268;42.642;23.308;2022-09-27T03:54:07;92895.28;;;13.76;92.37
49393;BME280;35268;42.642;23.308;2022-09-27T03:56:33;92903.69;;;13.74;92.47
49393;BME280;35268;42.642;23.308;2022-09-27T03:58:59;92893.72;;;13.75;92.81
49393;BME280;35268;42.642;23.308;2022-09-27T04:01:25;92904.78;;;13.73;92.78
49393;BME280;35268;42.642;23.308;2022-09-27T04:03:52;92899.22;;;13.82;92.49
49393;BME280;35268;42.642;23.308;2022-09-27T04:06:18;92892.66;;;13.79;92.25
49393;BME280;35268;42.642;23.308;2022-09-27T04:08:44;92885.88;;;13.85;92.25
49393;BME280;35268;42.642;23.308;2022-09-27T04:11:10;92892.72;;;13.83;92.40
49393;BME280;35268;42.642;23.308;2022-09-27T04:13:36;92885.78;;;13.78;92.52
49393;BME280;35268;42.642;23.308;2022-09-27T04:16:01;92877.75;;;13.78;92.69
49393;BME280;35268;42.642;23.308;2022-09-27T04:18:27;92886.88;;;13.77;92.81
49393;BME280;35268;42.642;23.308;2022-09-27T04:20:53;92889.16;;;13.75;93.18
49393;BME280;35268;42.642;23.308;2022-09-27T04:23:18;92889.22;;;13.79;93.11
49393;BME280;35268;42.642;23.308;2022-09-27T04:25:45;92884.53;;;13.72;93.57
49393;BME280;35268;42.642;23.308;2022-09-27T04:28:11;92879.03;;;13.65;93.52
49393;BME280;35268;42.642;23.308;2022-09-27T04:30:37;92882.59;;;13.73;94.21
49393;BME280;35268;42.642;23.308;2022-09-27T04:33:03;92872.66;;;13.73;93.84
49393;BME280;35268;42.642;23.308;2022-09-27T04:35:29;92879.16;;;13.72;93.86
49393;BME280;35268;42.642;23.308;2022-09-27T04:38:12;92880.69;;;13.73;94.00
49393;BME280;35268;42.642;23.308;2022-09-27T04:40:38;92863.94;;;13.76;94.03
49393;BME280;35268;42.642;23.308;2022-09-27T04:43:04;92864.75;;;13.80;93.96
49393;BME280;35268;42.642;23.308;2022-09-27T04:45:30;92876.66;;;13.83;94.01
49393;BME280;35268;42.642;23.308;2022-09-27T04:47:55;92903.44;;;13.83;94.33
49393;BME280;35268;42.642;23.308;2022-09-27T04:50:21;92906.97;;;13.87;94.03
49393;BME280;35268;42.642;23.308;2022-09-27T04:52:51;92916.06;;;13.82;94.41
49393;BME280;35268;42.642;23.308;2022-09-27T04:55:21;92903.31;;;13.76;94.45
49393;BME280;35268;42.642;23.308;2022-09-27T04:57:47;92909.16;;;13.81;95.09
49393;BME280;35268;42.642;23.308;2022-09-27T05:00:14;92899.28;;;13.85;94.67
49393;BME280;35268;42.642;23.308;2022-09-27T05:02:42;92899.41;;;13.93;94.46
49393;BME280;35268;42.642;23.308;2022-09-27T05:05:08;92885.88;;;13.85;94.73
49393;BME280;35268;42.642;23.308;2022-09-27T05:07:36;92893.91;;;13.85;95.24
49393;BME280;35268;42.642;23.308;2022-09-27T05:10:02;92890.94;;;13.91;95.74
49393;BME280;35268;42.642;23.308;2022-09-27T05:12:27;92891.06;;;13.98;95.37
49393;BME280;35268;42.642;23.308;2022-09-27T05:14:53;92873.19;;;14.05;95.47
49393;BME280;35268;42.642;23.308;2022-09-27T05:17:19;92878.31;;;14.14;95.18
49393;BME280;35268;42.642;23.308;2022-09-27T05:19:47;92877.28;;;14.22;94.87
49393;BME280;35268;42.642;23.308;2022-09-27T05:22:13;92877.06;;;14.31;94.16
49393;BME280;35268;42.642;23.308;2022-09-27T05:24:39;92867.25;;;14.42;93.73
49393;BME280;35268;42.642;23.308;2022-09-27T05:27:04;92849.38;;;14.50;93.40
49393;BME280;35268;42.642;23.308;2022-09-27T05:29:34;92849.91;;;14.59;92.46
49393;BME280;35268;42.642;23.308;2022-09-27T05:32:03;92851.84;;;14.62;91.17
49393;BME280;35268;42.642;23.308;2022-09-27T05:34:29;92869.19;;;14.69;91.02
49393;BME280;35268;42.642;23.308;2022-09-27T05:36:57;92870.88;;;14.80;90.31
49393;BME280;35268;42.642;23.308;2022-09-27T05:39:22;92862.91;;;14.88;90.16
49393;BME280;35268;42.642;23.308;2022-09-27T05:41:48;92862.72;;;14.73;89.66
49393;BME280;35268;42.642;23.308;2022-09-27T05:44:15;92888.19;;;14.87;89.16
49393;BME280;35268;42.642;23.308;2022-09-27T05:46:41;92884.13;;;14.96;88.90
49393;BME280;35268;42.642;23.308;2022-09-27T05:49:07;92881.88;;;15.02;88.66
49393;BME280;35268;42.642;23.308;2022-09-27T05:51:33;92877.06;;;15.15;88.24
49393;BME280;35268;42.642;23.308;2022-09-27T05:53:58;92862.91;;;15.18;87.80
49393;BME280;35268;42.642;23.308;2022-09-27T05:56:24;92857.63;;;15.25;87.78
49393;BME280;35268;42.642;23.308;2022-09-27T05:58:50;92864.94;;;15.28;87.78
49393;BME280;35268;42.642;23.308;2022-09-27T06:01:16;92861.53;;;15.31;87.14
49393;BME280;35268;42.642;23.308;2022-09-27T06:03:44;92857.31;;;15.34;87.27
49393;BME280;35268;42.642;23.308;2022-09-27T06:06:10;92867.38;;;15.40;86.94
49393;BME280;35268;42.642;23.308;2022-09-27T06:08:37;92870.13;;;15.48;86.90
49393;BME280;35268;42.642;23.308;2022-09-27T06:11:08;92857.53;;;15.52;86.95
49393;BME280;35268;42.642;23.308;2022-09-27T06:13:35;92862.94;;;15.55;86.92
49393;BME280;35268;42.642;23.308;2022-09-27T06:16:02;92861.00;;;15.56;87.34
49393;BME280;35268;42.642;23.308;2022-09-27T06:18:27;92871.41;;;15.61;86.96
49393;BME280;35268;42.642;23.308;2022-09-27T06:20:53;92865.75;;;15.70;86.44
49393;BME280;35268;42.642;23.308;2022-09-27T06:23:21;92859.78;;;15.83;85.49
49393;BME280;35268;42.642;23.308;2022-09-27T06:25:48;92865.16;;;15.83;84.94
49393;BME280;35268;42.642;23.308;2022-09-27T06:28:15;92862.41;;;15.76;85.06
49393;BME280;35268;42.642;23.308;2022-09-27T06:30:43;92858.47;;;15.70;86.29
49393;BME280;35268;42.642;23.308;2022-09-27T06:33:11;92861.41;;;15.58;86.71
49393;BME280;35268;42.642;23.308;2022-09-27T06:35:38;92865.22;;;15.53;86.35
49393;BME280;35268;42.642;23.308;2022-09-27T06:38:05;92875.09;;;15.45;86.86
49393;BME280;35268;42.642;23.308;2022-09-27T06:40:33;92878.09;;;15.40;88.09
49393;BME280;35268;42.642;23.308;2022-09-27T06:43:03;92874.25;;;15.38;88.18
49393;BME280;35268;42.642;23.308;2022-09-27T06:45:31;92879.97;;;15.36;88.40
49393;BME280;35268;42.642;23.308;2022-09-27T06:47:57;92876.56;;;15.39;89.12
49393;BME280;35268;42.642;23.308;2022-09-27T06:50:23;92877.03;;;15.49;89.70
49393;BME280;35268;42.642;23.308;2022-09-27T06:52:49;92872.06;;;15.51;88.57
49393;BME280;35268;42.642;23.308;2022-09-27T06:55:15;92864.00;;;15.51;88.67
49393;BME280;35268;42.642;23.308;2022-09-27T06:57:42;92861.78;;;15.56;88.58
49393;BME280;35268;42.642;23.308;2022-09-27T07:00:26;92865.72;;;15.66;88.33
49393;BME280;35268;42.642;23.308;2022-09-27T07:02:53;92861.22;;;15.74;88.32
49393;BME280;35268;42.642;23.308;2022-09-27T07:05:19;92873.63;;;15.86;87.91
49393;BME280;35268;42.642;23.308;2022-09-27T07:07:45;92876.72;;;15.91;87.08
49393;BME280;35268;42.642;23.308;2022-09-27T07:10:20;92878.72;;;15.98;87.13
49393;BME280;35268;42.642;23.308;2022-09-27T07:12:45;92879.53;;;16.05;86.24
49393;BME280;35268;42.642;23.308;2022-09-27T07:15:13;92871.44;;;15.98;85.41
49393;BME280;35268;42.642;23.308;2022-09-27T07:17:39;92877.56;;;15.99;85.13
49393;BME280;35268;42.642;23.308;2022-09-27T07:20:05;92868.03;;;16.05;85.55
49393;BME280;35268;42.642;23.308;2022-09-27T07:22:30;92859.56;;;16.03;85.09
49393;BME280;35268;42.642;23.308;2022-09-27T07:24:56;92871.47;;;16.02;85.74
49393;BME280;35268;42.642;23.308;2022-09-27T07:27:22;92864.50;;;15.97;86.31
49393;BME280;35268;42.642;23.308;2022-09-27T07:29:49;92867.47;;;15.85;87.04
49393;BME280;35268;42.642;23.308;2022-09-27T07:32:15;92857.88;;;15.84;87.66
49393;BME280;35268;42.642;23.308;2022-09-27T07:34:40;92870.53;;;15.83;87.58
49393;BME280;35268;42.642;23.308;2022-09-27T07:37:06;92886.56;;;15.76;88.38
49393;BME280;35268;42.642;23.308;2022-09-27T07:39:31;92885.75;;;15.72;88.38
49393;BME280;35268;42.642;23.308;2022-09-27T07:41:57;92910.53;;;15.58;88.76
49393;BME280;35268;42.642;23.308;2022-09-27T07:44:23;92918.53;;;15.55;88.74
49393;BME280;35268;42.642;23.308;2022-09-27T07:46:48;92917.66;;;15.43;88.65
49393;BME280;35268;42.642;23.308;2022-09-27T07:49:14;92915.22;;;15.31;89.41
49393;BME280;35268;42.642;23.308;2022-09-27T07:51:39;92903.94;;;15.18;90.20
49393;BME280;35268;42.642;23.308;2022-09-27T07:54:05;92919.38;;;15.25;90.97
49393;BME280;35268;42.642;23.308;2022-09-27T07:56:30;92912.47;;;15.28;90.64
49393;BME280;35268;42.642;23.308;2022-09-27T07:58:56;92906.75;;;15.29;89.92
49393;BME280;35268;42.642;23.308;2022-09-27T08:01:22;92904.06;;;15.29;89.54
49393;BME280;35268;42.642;23.308;2022-09-27T08:03:48;92864.84;;;15.21;89.93
49393;BME280;35268;42.642;23.308;2022-09-27T08:06:13;92869.41;;;15.17;90.95
49393;BME280;35268;42.642;23.308;2022-09-27T08:08:39;92856.81;;;15.21;92.10
49393;BME280;35268;42.642;23.308;2022-09-27T08:11:12;92868.41;;;15.29;92.42
49393;BME280;35268;42.642;23.308;2022-09-27T08:13:40;92861.22;;;15.40;92.57
49393;BME280;35268;42.642;23.308;2022-09-27T08:16:06;92877.13;;;15.56;92.13
49393;BME280;35268;42.642;23.308;2022-09-27T08:18:31;92875.72;;;15.69;91.98
49393;BME280;35268;42.642;23.308;2022-09-27T08:20:57;92876.63;;;15.80;90.84
49393;BME280;35268;42.642;23.308;2022-09-27T08:23:23;92887.50;;;15.95;90.31
49393;BME280;35268;42.642;23.308;2022-09-27T08:25:58;92895.69;;;16.09;88.14
49393;BME280;35268;42.642;23.308;2022-09-27T08:28:25;92888.50;;;16.20;86.86
49393;BME280;35268;42.642;23.308;2022-09-27T08:30:51;92888.63;;;16.35;86.41
49393;BME280;35268;42.642;23.308;2022-09-27T08:33:17;92876.81;;;16.50;85.87
49393;BME280;35268;42.642;23.308;2022-09-27T08:35:43;92851.91;;;16.60;85.27
49393;BME280;35268;42.642;23.308;2022-09-27T08:38:09;92852.38;;;16.73;85.39
49393;BME280;35268;42.642;23.308;2022-09-27T08:40:56;92862.47;;;16.91;84.38
49393;BME280;35268;42.642;23.308;2022-09-27T08:43:53;92844.50;;;17.09;83.60
49393;BME280;35268;42.642;23.308;2022-09-27T08:49:54;92850.78;;;17.49;80.78
49393;BME280;35268;42.642;23.308;2022-09-27T08:52:28;92865.81;;;17.64;80.47
49393;BME280;35268;42.642;23.308;2022-09-27T08:55:03;92858.22;;;17.88;80.52
49393;BME280;35268;42.642;23.308;2022-09-27T08:57:30;92841.28;;;18.06;80.38
49393;BME280;35268;42.642;23.308;2022-09-27T09:00:12;92842.06;;;18.35;79.88
49393;BME280;35268;42.642;23.308;2022-09-27T09:02:37;92839.72;;;18.55;76.84
49393;BME280;35268;42.642;23.308;2022-09-27T09:05:11;92835.44;;;18.72;77.27
49393;BME280;35268;42.642;23.308;2022-09-27T09:08:44;92819.63;;;18.84;73.44
49393;BME280;35268;42.642;23.308;2022-09-27T09:10:49;92816.16;;;18.73;74.41
49393;BME280;35268;42.642;23.308;2022-09-27T09:13:58;92818.41;;;19.03;75.20
49393;BME280;35268;42.642;23.308;2022-09-27T09:16:43;92821.06;;;19.14;74.28
49393;BME280;35268;42.642;23.308;2022-09-27T09:35:41;92828.13;;;19.68;72.57
49393;BME280;35268;42.642;23.308;2022-09-27T09:38:49;92822.75;;;19.71;71.91
49393;BME280;35268;42.642;23.308;2022-09-27T09:43:45;92816.38;;;20.03;72.42
49393;BME280;35268;42.642;23.308;2022-09-27T09:46:20;92816.66;;;20.12;72.00
49393;BME280;35268;42.642;23.308;2022-09-27T09:48:54;92828.41;;;19.95;71.10
49393;BME280;35268;42.642;23.308;2022-09-27T09:51:28;92829.94;;;19.92;70.89
49393;BME280;35268;42.642;23.308;2022-09-27T09:54:05;92840.13;;;19.67;70.96
49393;BME280;35268;42.642;23.308;2022-09-27T09:56:48;92834.00;;;19.52;71.69
49393;BME280;35268;42.642;23.308;2022-09-27T09:59:51;92830.47;;;19.62;72.49
49393;BME280;35268;42.642;23.308;2022-09-27T10:02:38;92834.31;;;19.72;72.29
49393;BME280;35268;42.642;23.308;2022-09-27T10:05:05;92824.97;;;19.83;69.11
49393;BME280;35268;42.642;23.308;2022-09-27T10:07:33;92821.97;;;19.67;69.72
49393;BME280;35268;42.642;23.308;2022-09-27T10:10:01;92828.22;;;19.57;71.88
49393;BME280;35268;42.642;23.308;2022-09-27T10:12:29;92818.16;;;19.54;73.24
49393;BME280;35268;42.642;23.308;2022-09-27T10:14:58;92815.88;;;19.52;73.07
49393;BME280;35268;42.642;23.308;2022-09-27T10:17:33;92825.16;;;19.51;72.29
49393;BME280;35268;42.642;23.308;2022-09-27T10:20:01;92827.47;;;19.53;72.17
49393;BME280;35268;42.642;23.308;2022-09-27T10:22:33;92815.91;;;19.49;72.37
49393;BME280;35268;42.642;23.308;2022-09-27T10:25:06;92815.91;;;19.41;71.94
49393;BME280;35268;42.642;23.308;2022-09-27T10:27:43;92818.69;;;19.34;72.45
49393;BME280;35268;42.642;23.308;2022-09-27T10:30:39;92816.34;;;19.36;72.83
49393;BME280;35268;42.642;23.308;2022-09-27T10:33:14;92817.03;;;19.48;73.00
49393;BME280;35268;42.642;23.308;2022-09-27T10:35:42;92815.06;;;19.62;72.84
49393;BME280;35268;42.642;23.308;2022-09-27T10:40:41;92804.84;;;19.92;72.12
49393;BME280;35268;42.642;23.308;2022-09-27T10:46:08;92774.31;;;20.40;71.92
49393;BME280;35268;42.642;23.308;2022-09-27T10:48:38;92769.50;;;20.55;71.64
49393;BME280;35268;42.642;23.308;2022-09-27T10:51:30;92776.50;;;20.52;70.31
49393;BME280;35268;42.642;23.308;2022-09-27T10:53:56;92762.16;;;20.55;70.33
49393;BME280;35268;42.642;23.308;2022-09-27T10:56:30;92769.00;;;20.71;70.40
49393;BME280;35268;42.642;23.308;2022-09-27T10:58:57;92755.16;;;20.61;69.64
49393;BME280;35268;42.642;23.308;2022-09-27T11:01:38;92749.16;;;20.81;70.69
49393;BME280;35268;42.642;23.308;2022-09-27T11:04:05;92750.25;;;20.87;71.16
49393;BME280;35268;42.642;23.308;2022-09-27T11:06:32;92738.50;;;20.97;70.33
49393;BME280;35268;42.642;23.308;2022-09-27T11:11:43;92748.81;;;21.10;69.29
49393;BME280;35268;42.642;23.308;2022-09-27T11:14:22;92739.44;;;21.14;68.50
49393;BME280;35268;42.642;23.308;2022-09-27T11:17:09;92750.03;;;21.36;67.53
49393;BME280;35268;42.642;23.308;2022-09-27T11:19:48;92761.56;;;21.40;65.72
49393;BME280;35268;42.642;23.308;2022-09-27T11:44:59;92711.41;;;21.55;67.68
49393;BME280;35268;42.642;23.308;2022-09-27T11:53:45;92690.97;;;22.25;63.31
49393;BME280;35268;42.642;23.308;2022-09-27T11:59:30;92696.47;;;22.81;60.59
49393;BME280;35268;42.642;23.308;2022-09-27T12:10:48;92661.06;;;23.41;56.80
49393;BME280;35268;42.642;23.308;2022-09-27T12:13:26;92680.44;;;23.43;56.48
49393;BME280;35268;42.642;23.308;2022-09-27T12:15:54;92672.97;;;23.64;57.40
49393;BME280;35268;42.642;23.308;2022-09-27T12:20:49;92656.38;;;24.08;54.65
49393;BME280;35268;42.642;23.308;2022-09-27T12:23:32;92645.78;;;24.26;54.53
49393;BME280;35268;42.642;23.308;2022-09-27T12:26:06;92630.34;;;24.52;52.32
49393;BME280;35268;42.642;23.308;2022-09-27T12:28:45;92628.22;;;24.73;51.66
49393;BME280;35268;42.642;23.308;2022-09-27T12:31:28;92625.72;;;24.91;51.23
49393;BME280;35268;42.642;23.308;2022-09-27T12:34:12;92614.19;;;25.13;49.54
49393;BME280;35268;42.642;23.308;2022-09-27T12:36:46;92608.41;;;25.11;50.40
49393;BME280;35268;42.642;23.308;2022-09-27T12:39:45;92603.09;;;25.33;48.72
49393;BME280;35268;42.642;23.308;2022-09-27T12:42:16;92596.00;;;25.35;45.96
49393;BME280;35268;42.642;23.308;2022-09-27T12:44:44;92591.31;;;25.36;43.83
49393;BME280;35268;42.642;23.308;2022-09-27T12:52:41;92587.56;;;25.68;42.44
49393;BME280;35268;42.642;23.308;2022-09-27T13:07:03;92581.38;;;25.55;38.81
49393;BME280;35268;42.642;23.308;2022-09-27T13:10:04;92596.56;;;25.30;39.81
49393;BME280;35268;42.642;23.308;2022-09-27T13:12:35;92581.94;;;25.37;40.70
49393;BME280;35268;42.642;23.308;2022-09-27T13:15:33;92570.50;;;25.29;40.01
49393;BME280;35268;42.642;23.308;2022-09-27T13:18:03;92572.88;;;25.27;40.63
49393;BME280;35268;42.642;23.308;2022-09-27T13:23:01;92592.94;;;25.46;39.27
49393;BME280;35268;42.642;23.308;2022-09-27T13:31:04;92558.03;;;25.15;40.21
49393;BME280;35268;42.642;23.308;2022-09-27T13:33:49;92559.16;;;25.18;39.24
49393;BME280;35268;42.642;23.308;2022-09-27T13:47:38;92591.31;;;25.49;38.35
49393;BME280;35268;42.642;23.308;2022-09-27T13:50:27;92595.16;;;25.86;38.46
49393;BME280;35268;42.642;23.308;2022-09-27T13:59:05;92598.59;;;25.52;39.51
49393;BME280;35268;42.642;23.308;2022-09-27T14:01:41;92594.78;;;25.62;41.86
49393;BME280;35268;42.642;23.308;2022-09-27T14:04:40;92590.78;;;26.23;38.98
49393;BME280;35268;42.642;23.308;2022-09-27T14:07:14;92583.56;;;26.74;38.42
49393;BME280;35268;42.642;23.308;2022-09-27T14:10:04;92587.69;;;27.10;36.42
49393;BME280;35268;42.642;23.308;2022-09-27T14:12:36;92593.41;;;27.25;34.79
49393;BME280;35268;42.642;23.308;2022-09-27T14:15:03;92587.19;;;27.02;36.01
49393;BME280;35268;42.642;23.308;2022-09-27T14:17:32;92588.69;;;27.25;36.09
49393;BME280;35268;42.642;23.308;2022-09-27T14:23:00;92587.00;;;26.65;37.18
49393;BME280;35268;42.642;23.308;2022-09-27T14:25:29;92582.91;;;26.04;38.15
49393;BME280;35268;42.642;23.308;2022-09-27T14:27:55;92583.44;;;25.38;40.03
49393;BME280;35268;42.642;23.308;2022-09-27T14:30:25;92585.06;;;24.84;41.21
49393;BME280;35268;42.642;23.308;2022-09-27T14:32:53;92567.00;;;24.48;41.68
49393;BME280;35268;42.642;23.308;2022-09-27T14:35:27;92546.34;;;24.21;42.30
49393;BME280;35268;42.642;23.308;2022-09-27T14:38:15;92555.31;;;23.93;43.78
49393;BME280;35268;42.642;23.308;2022-09-27T14:41:03;92559.75;;;23.70;43.91
49393;BME280;35268;42.642;23.308;2022-09-27T14:43:29;92572.94;;;23.55;44.87
49393;BME280;35268;42.642;23.308;2022-09-27T14:46:05;92548.06;;;23.24;44.00
49393;BME280;35268;42.642;23.308;2022-09-27T14:50:59;92557.97;;;22.98;45.85
49393;BME280;35268;42.642;23.308;2022-09-27T14:53:35;92572.72;;;22.80;45.02
49393;BME280;35268;42.642;23.308;2022-09-27T14:56:01;92568.47;;;22.79;45.53
49393;BME280;35268;42.642;23.308;2022-09-27T14:58:28;92581.63;;;22.81;45.57
49393;BME280;35268;42.642;23.308;2022-09-27T15:00:57;92606.06;;;22.81;45.46
49393;BME280;35268;42.642;23.308;2022-09-27T15:03:29;92611.44;;;22.84;50.98
49393;BME280;35268;42.642;23.308;2022-09-27T15:05:57;92607.69;;;22.78;54.17
49393;BME280;35268;42.642;23.308;2022-09-27T15:08:27;92627.13;;;22.57;55.76
49393;BME280;35268;42.642;23.308;2022-09-27T15:11:05;92673.16;;;22.20;58.00
49393;BME280;35268;42.642;23.308;2022-09-27T15:13:32;92691.91;;;21.10;52.75
49393;BME280;35268;42.642;23.308;2022-09-27T15:16:10;92669.00;;;19.77;51.42
49393;BME280;35268;42.642;23.308;2022-09-27T15:18:43;92675.00;;;18.87;56.10
49393;BME280;35268;42.642;23.308;2022-09-27T15:21:31;92704.44;;;18.45;56.72
49393;BME280;35268;42.642;23.308;2022-09-27T15:24:04;92724.19;;;18.10;55.91
49393;BME280;35268;42.642;23.308;2022-09-27T15:26:37;92711.50;;;17.96;55.24
49393;BME280;35268;42.642;23.308;2022-09-27T15:29:39;92726.88;;;17.78;62.11
49393;BME280;35268;42.642;23.308;2022-09-27T15:32:38;92719.16;;;17.33;59.73
49393;BME280;35268;42.642;23.308;2022-09-27T15:35:06;92705.28;;;17.10;60.96
49393;BME280;35268;42.642;23.308;2022-09-27T15:37:36;92719.84;;;17.01;61.54
49393;BME280;35268;42.642;23.308;2022-09-27T15:43:03;92733.59;;;16.71;66.24
49393;BME280;35268;42.642;23.308;2022-09-27T15:45:31;92724.22;;;16.40;68.07
49393;BME280;35268;42.642;23.308;2022-09-27T15:48:13;92713.03;;;16.27;72.06
49393;BME280;35268;42.642;23.308;2022-09-27T15:50:40;92701.66;;;15.86;74.84
49393;BME280;35268;42.642;23.308;2022-09-27T15:53:07;92704.16;;;15.64;76.70
49393;BME280;35268;42.642;23.308;2022-09-27T15:55:38;92697.47;;;15.43;78.92